createdAt,value
2022-08-21T07:56:57.262Z,18.29
2022-08-21T07:57:51.277Z,18.39
2022-08-21T07:58:51.431Z,18.44
2022-08-21T07:59:51.198Z,18.36
2022-08-21T08:00:51.151Z,18.41
2022-08-21T08:01:51.105Z,18.47
2022-08-21T08:03:02.887Z,18.45
2022-08-21T08:03:51.158Z,18.52
2022-08-21T08:05:01.039Z,18.47
2022-08-21T08:05:51.428Z,18.48
2022-08-21T08:07:05.505Z,18.44
2022-08-21T08:08:08.144Z,18.55
2022-08-21T08:08:51.832Z,18.45
2022-08-21T08:09:52.035Z,18.54
2022-08-21T08:11:07.897Z,18.50
2022-08-21T08:11:51.412Z,18.54
2022-08-21T08:12:51.168Z,18.51
2022-08-21T08:13:52.930Z,18.51
2022-08-21T08:14:51.209Z,18.52
2022-08-21T08:15:50.961Z,18.66
2022-08-21T08:16:50.895Z,18.60
2022-08-21T08:17:50.870Z,18.62
2022-08-21T08:18:50.865Z,18.69
2022-08-21T08:19:51.316Z,18.72
2022-08-21T08:20:51.051Z,18.65
2022-08-21T08:21:50.842Z,18.66
2022-08-21T08:22:50.919Z,18.76
2022-08-21T08:23:50.794Z,18.80
2022-08-21T08:24:50.816Z,18.80
2022-08-21T08:25:50.778Z,18.73
2022-08-21T08:26:54.133Z,18.76
2022-08-21T08:27:50.758Z,18.80
2022-08-21T08:28:51.801Z,18.69
2022-08-21T08:29:50.727Z,18.81
2022-08-21T08:30:52.298Z,18.87
2022-08-21T08:31:50.724Z,18.81
2022-08-21T08:32:50.705Z,18.84
2022-08-21T08:34:01.516Z,18.92
2022-08-21T08:34:51.389Z,18.91
2022-08-21T08:35:50.810Z,18.99
2022-08-21T08:36:50.732Z,19.02
2022-08-21T08:37:52.252Z,19.11
2022-08-21T08:38:50.663Z,19.13
2022-08-21T08:39:50.721Z,19.22
2022-08-21T08:40:50.688Z,19.28
2022-08-21T08:41:50.625Z,19.26
2022-08-21T08:44:04.179Z,19.31
2022-08-21T08:45:04.179Z,19.23
2022-08-21T08:46:03.207Z,19.36
2022-08-21T08:47:13.874Z,19.25
2022-08-21T08:48:03.764Z,19.26
2022-08-21T08:49:03.178Z,19.37
2022-08-21T08:50:03.292Z,19.29
2022-08-21T08:51:03.058Z,19.37
2022-08-21T08:52:03.563Z,19.32
2022-08-21T08:53:13.654Z,19.31
2022-08-21T08:54:03.032Z,19.37
2022-08-21T08:55:03.112Z,19.36
2022-08-21T08:56:13.669Z,19.29
2022-08-21T08:58:38.603Z,19.32
2022-08-21T08:59:16.546Z,19.23
2022-08-21T09:00:27.776Z,19.32
2022-08-21T09:01:29.688Z,19.23
2022-08-21T09:02:17.394Z,19.32
